createdAt,value
2022-11-24T00:01:39.186Z,99444.19
2022-11-24T00:04:41.882Z,99443.91
2022-11-24T00:07:44.688Z,99442.81
2022-11-24T00:10:48.906Z,99444.31
2022-11-24T00:13:52.305Z,99451.16
2022-11-24T00:16:55.257Z,99456.22
2022-11-24T00:19:58.130Z,99453.47
2022-11-24T00:23:01.915Z,99471.16
2022-11-24T00:26:08.480Z,99468.69
2022-11-24T00:29:12.929Z,99477.53
2022-11-24T00:32:15.637Z,99462.91
2022-11-24T00:35:18.345Z,99467.06
2022-11-24T00:38:21.226Z,99467.72
2022-11-24T00:41:26.268Z,99463.00
2022-11-24T00:44:30.008Z,99470.03
2022-11-24T00:47:32.976Z,99470.84
2022-11-24T00:50:35.737Z,99463.00
2022-11-24T00:53:38.763Z,99463.09
2022-11-24T00:56:42.856Z,99475.28
2022-11-24T00:59:45.587Z,99471.16
2022-11-24T01:02:48.632Z,99477.69
2022-11-24T01:05:51.398Z,99483.75
2022-11-24T01:08:54.788Z,99495.06
2022-11-24T01:12:04.749Z,99496.34
2022-11-24T01:15:08.273Z,99512.03
2022-11-24T01:18:11.151Z,99503.47
2022-11-24T01:21:14.833Z,99509.44
2022-11-24T01:24:18.352Z,99496.91
2022-11-24T01:27:22.414Z,99519.69
2022-11-24T01:30:25.210Z,99510.81
2022-11-24T01:33:28.116Z,99518.88
2022-11-24T01:36:30.901Z,99515.31
2022-11-24T01:39:33.619Z,99523.88
2022-11-24T01:42:48.090Z,99529.69
2022-11-24T01:45:51.110Z,99536.00
2022-11-24T01:49:01.422Z,99539.50
2022-11-24T01:52:08.061Z,99532.28
2022-11-24T01:55:18.739Z,99529.25
2022-11-24T01:58:27.738Z,99541.66
2022-11-24T02:01:32.239Z,99541.19
2022-11-24T02:04:36.590Z,99544.53
2022-11-24T02:07:39.700Z,99540.63
2022-11-24T02:10:43.823Z,99549.59
2022-11-24T02:13:49.709Z,99547.69
2022-11-24T02:16:53.074Z,99551.34
2022-11-24T02:19:58.407Z,99552.34
2022-11-24T02:23:06.392Z,99557.88
2022-11-24T02:26:17.389Z,99561.31
2022-11-24T02:29:21.819Z,99567.69
2022-11-24T02:32:24.671Z,99561.47
2022-11-24T02:35:28.694Z,99565.44
2022-11-24T02:38:33.356Z,99559.41
2022-11-24T02:41:36.083Z,99565.09
2022-11-24T02:44:45.246Z,99570.81
2022-11-24T02:47:47.967Z,99564.50
2022-11-24T02:50:50.855Z,99562.75
2022-11-24T02:53:53.551Z,99562.69
2022-11-24T02:56:56.664Z,99565.38
2022-11-24T03:00:00.767Z,99561.84
2022-11-24T03:03:04.787Z,99559.31
2022-11-24T03:06:07.634Z,99562.69
2022-11-24T03:09:11.300Z,99559.72
2022-11-24T03:12:14.088Z,99568.19
2022-11-24T03:15:18.407Z,99554.31
2022-11-24T03:18:21.215Z,99551.22
2022-11-24T03:21:23.882Z,99558.31
2022-11-24T03:24:26.654Z,99564.59
2022-11-24T03:27:29.483Z,99569.00
2022-11-24T03:30:33.586Z,99561.13
2022-11-24T03:33:36.950Z,99570.56
2022-11-24T03:36:39.837Z,99575.34
2022-11-24T03:39:42.634Z,99572.22
2022-11-24T03:42:45.339Z,99578.09
2022-11-24T03:45:50.120Z,99589.25
2022-11-24T03:48:52.827Z,99603.88
2022-11-24T03:51:55.530Z,99602.38
2022-11-24T03:54:58.272Z,99609.25
2022-11-24T03:58:02.115Z,99594.84
2022-11-24T04:01:06.198Z,99603.34
2022-11-24T04:04:11.398Z,99602.66
2022-11-24T04:07:14.316Z,99606.50
2022-11-24T04:10:17.299Z,99611.28
2022-11-24T04:13:21.234Z,99612.59
2022-11-24T04:16:25.372Z,99613.19
2022-11-24T04:19:28.075Z,99599.25
2022-11-24T04:22:31.430Z,99609.53
2022-11-24T04:25:34.554Z,99618.94
2022-11-24T04:28:37.994Z,99622.03
2022-11-24T04:31:42.087Z,99627.75
2022-11-24T04:34:45.067Z,99630.69
2022-11-24T04:37:48.114Z,99633.41
2022-11-24T04:40:51.081Z,99635.06
2022-11-24T04:43:53.752Z,99632.28
2022-11-24T04:46:57.901Z,99630.16
2022-11-24T04:50:00.675Z,99632.59
2022-11-24T04:53:04.507Z,99647.56
2022-11-24T04:56:08.240Z,99649.31
2022-11-24T04:59:14.311Z,99658.31
2022-11-24T05:02:18.813Z,99668.19
2022-11-24T05:05:21.622Z,99670.97
2022-11-24T05:08:24.322Z,99675.53
2022-11-24T05:11:27.003Z,99687.13
2022-11-24T05:14:29.752Z,99680.97
2022-11-24T05:17:35.723Z,99695.19
2022-11-24T05:20:38.993Z,99698.75
2022-11-24T05:23:41.926Z,99704.84
2022-11-24T05:26:44.640Z,99696.66
2022-11-24T05:29:47.584Z,99694.66
2022-11-24T05:32:51.636Z,99696.56
2022-11-24T05:35:54.377Z,99697.53
2022-11-24T05:38:57.092Z,99698.53
2022-11-24T05:41:59.895Z,99710.16
2022-11-24T05:45:02.641Z,99709.91
2022-11-24T05:48:08.490Z,99717.06
2022-11-24T05:51:11.202Z,99719.44
2022-11-24T05:54:13.914Z,99716.34
2022-11-24T05:57:18.036Z,99715.28
2022-11-24T06:00:20.848Z,99722.31
2022-11-24T06:03:24.932Z,99721.22
2022-11-24T06:06:28.068Z,99720.03
2022-11-24T06:09:30.821Z,99729.63
2022-11-24T06:12:33.552Z,99733.09
2022-11-24T06:15:37.705Z,99734.66
2022-11-24T06:18:42.337Z,99739.81
2022-11-24T06:21:45.037Z,99741.31
2022-11-24T06:24:47.887Z,99746.50
2022-11-24T06:27:50.923Z,99743.69
2022-11-24T06:30:53.858Z,99737.09
2022-11-24T06:33:57.915Z,99752.25
2022-11-24T06:37:00.695Z,99751.19
2022-11-24T06:40:04.443Z,99744.84
2022-11-24T06:43:07.163Z,99751.06
2022-11-24T06:46:10.092Z,99744.75
2022-11-24T06:49:14.194Z,99750.13
2022-11-24T06:52:16.883Z,99750.91
2022-11-24T06:55:19.576Z,99737.44
2022-11-24T06:58:22.659Z,99745.28
2022-11-24T07:01:27.330Z,99747.16
2022-11-24T07:04:31.782Z,99749.03
2022-11-24T07:07:34.726Z,99750.78
2022-11-24T07:10:38.251Z,99745.34
2022-11-24T07:13:40.960Z,99764.94
2022-11-24T07:16:43.759Z,99763.13
2022-11-24T07:19:47.914Z,99767.59
2022-11-24T07:22:50.640Z,99770.34
2022-11-24T07:25:54.787Z,99775.66
2022-11-24T07:28:58.122Z,99780.94
2022-11-24T07:32:05.248Z,99787.03
2022-11-24T07:35:10.418Z,99789.75
2022-11-24T07:38:13.306Z,99794.06
2022-11-24T07:41:19.412Z,99802.34
2022-11-24T07:44:22.141Z,99802.34
2022-11-24T07:47:24.904Z,99805.97
2022-11-24T07:50:28.993Z,99824.78
2022-11-24T07:53:32.427Z,99815.66
2022-11-24T07:56:35.229Z,99828.09
2022-11-24T07:59:37.926Z,99821.66
2022-11-24T08:02:41.556Z,99830.56
2022-11-24T08:06:22.394Z,99825.97
2022-11-24T08:09:16.638Z,99824.09
2022-11-24T08:12:21.666Z,99824.16
2022-11-24T08:15:24.412Z,99835.81
2022-11-24T08:18:27.858Z,99835.75
2022-11-24T08:21:35.442Z,99833.72
2022-11-24T08:24:38.521Z,99835.22
2022-11-24T08:27:41.340Z,99836.66
2022-11-24T08:30:44.032Z,99850.69
2022-11-24T08:33:47.272Z,99834.91
2022-11-24T08:36:51.434Z,99831.69
2022-11-24T08:39:54.244Z,99843.81
2022-11-24T08:42:58.280Z,99842.41
2022-11-24T08:46:02.210Z,99839.34
2022-11-24T08:49:06.440Z,99834.41
2022-11-24T08:52:10.827Z,99841.41
2022-11-24T08:55:13.565Z,99841.13
2022-11-24T08:58:16.725Z,99843.50
2022-11-24T09:01:19.723Z,99844.34
2022-11-24T09:04:22.593Z,99844.78
2022-11-24T09:07:26.731Z,99844.66
2022-11-24T09:10:29.555Z,99852.66
2022-11-24T09:13:32.327Z,99855.19
2022-11-24T09:16:35.223Z,99870.97
2022-11-24T09:19:38.029Z,99877.78
2022-11-24T09:22:43.094Z,99861.72
2022-11-24T09:25:45.803Z,99865.44
2022-11-24T09:28:50.110Z,99865.06
2022-11-24T09:31:53.186Z,99876.00
2022-11-24T09:34:56.262Z,99881.09
2022-11-24T09:38:00.334Z,99885.09
2022-11-24T09:41:27.954Z,99879.38
2022-11-24T09:45:06.480Z,99873.81
2022-11-24T09:48:17.232Z,99883.69
2022-11-24T09:51:25.001Z,99886.84
2022-11-24T09:54:31.589Z,99889.94
2022-11-24T09:57:38.226Z,99896.25
2022-11-24T10:00:42.373Z,99900.63
2022-11-24T10:03:47.381Z,99902.16
2022-11-24T10:07:00.306Z,99901.19
2022-11-24T10:10:13.245Z,99896.59
2022-11-24T10:13:31.266Z,99885.53
2022-11-24T10:16:46.988Z,99874.94
2022-11-24T10:19:56.104Z,99888.94
2022-11-24T10:23:24.539Z,99892.88
2022-11-24T10:26:36.636Z,99895.97
2022-11-24T10:29:41.822Z,99899.31
2022-11-24T10:32:48.502Z,99900.59
2022-11-24T10:35:56.956Z,99885.13
2022-11-24T10:39:05.323Z,99894.44
2022-11-24T10:42:16.800Z,99901.13
2022-11-24T10:45:22.288Z,99896.72
2022-11-24T10:48:28.315Z,99901.06
2022-11-24T10:51:54.139Z,99890.91
2022-11-24T10:54:59.096Z,99895.50
2022-11-24T10:58:17.245Z,99892.53
2022-11-24T11:01:22.304Z,99891.16
2022-11-24T11:04:28.123Z,99891.22
2022-11-24T11:07:30.915Z,99895.94
2022-11-24T11:10:33.803Z,99904.25
2022-11-24T11:13:37.862Z,99907.44
2022-11-24T11:16:42.234Z,99913.28
2022-11-24T11:19:54.257Z,99906.72
2022-11-24T11:23:01.372Z,99916.38
2022-11-24T11:26:31.289Z,99921.09
2022-11-24T11:36:26.210Z,99925.03
2022-11-24T11:39:32.920Z,99915.81
2022-11-24T11:46:13.702Z,99929.13
2022-11-24T11:49:16.552Z,99928.06
2022-11-24T11:52:47.708Z,99928.63
2022-11-24T11:56:10.814Z,99929.38
2022-11-24T11:59:28.599Z,99927.66
2022-11-24T12:02:53.593Z,99938.97
2022-11-24T12:06:05.803Z,99934.06
2022-11-24T12:09:21.343Z,99935.63
2022-11-24T12:12:44.670Z,99940.34
2022-11-24T12:15:51.013Z,99935.44
2022-11-24T12:19:08.293Z,99937.38
2022-11-24T12:22:23.452Z,99920.19
2022-11-24T12:25:31.768Z,99946.97
2022-11-24T12:28:46.378Z,99948.13
2022-11-24T12:31:56.241Z,99948.72
2022-11-24T12:35:12.910Z,99958.03
2022-11-24T12:38:31.740Z,99957.81
2022-11-24T12:41:50.142Z,99953.13
2022-11-24T12:45:14.108Z,99951.88
2022-11-24T12:48:29.745Z,99954.16
2022-11-24T12:51:39.223Z,99952.34
2022-11-24T12:54:42.258Z,99951.38
2022-11-24T12:57:51.425Z,99963.19
2022-11-24T13:01:04.234Z,99959.34
2022-11-24T13:04:16.547Z,99961.44
2022-11-24T13:07:28.115Z,99968.53
2022-11-24T13:10:54.712Z,99958.03
2022-11-24T13:13:59.790Z,99961.28
2022-11-24T13:20:33.631Z,99972.09
2022-11-24T13:23:38.327Z,99979.84
2022-11-24T13:26:47.320Z,99979.38
2022-11-24T13:29:51.658Z,99986.97
2022-11-24T13:33:02.329Z,99985.44
2022-11-24T13:36:35.002Z,99982.94
2022-11-24T13:39:52.016Z,99988.41
2022-11-24T13:43:23.393Z,99987.25
2022-11-24T13:47:03.259Z,99981.13
2022-11-24T13:50:13.898Z,99977.97
2022-11-24T13:53:26.339Z,99992.50
2022-11-24T13:56:32.381Z,99994.09
2022-11-24T13:59:36.418Z,100000.50
2022-11-24T14:02:39.465Z,100000.72
2022-11-24T14:05:49.340Z,100013.50
2022-11-24T14:08:53.286Z,100011.06
2022-11-24T14:12:02.866Z,100006.66
2022-11-24T14:15:23.496Z,99980.38
2022-11-24T14:18:26.393Z,99996.66
2022-11-24T14:21:31.860Z,100013.41
2022-11-24T14:24:38.227Z,100004.66
2022-11-24T14:27:45.552Z,100011.78
2022-11-24T14:30:48.435Z,99989.34
2022-11-24T14:33:52.321Z,99996.66
2022-11-24T14:36:57.080Z,100001.19
2022-11-24T14:40:00.164Z,100010.72
2022-11-24T14:43:05.014Z,100014.03
2022-11-24T14:46:12.120Z,100017.28
2022-11-24T14:49:22.509Z,100023.19
2022-11-24T14:52:26.776Z,100027.16
2022-11-24T14:55:32.735Z,100025.31
2022-11-24T14:58:41.994Z,100029.75
2022-11-24T15:01:45.303Z,100031.47
2022-11-24T15:05:03.191Z,100034.47
2022-11-24T15:08:06.589Z,100039.00
2022-11-24T15:11:09.432Z,100046.34
2022-11-24T15:14:32.704Z,100053.84
2022-11-24T15:17:36.081Z,100028.16
2022-11-24T15:20:41.786Z,100059.34
2022-11-24T15:23:45.691Z,100062.47
2022-11-24T15:26:48.429Z,100076.31
2022-11-24T15:29:52.476Z,100070.16
2022-11-24T15:32:56.682Z,100077.09
2022-11-24T15:36:00.525Z,100081.31
2022-11-24T15:39:04.447Z,100058.41
2022-11-24T15:42:07.553Z,100088.16
2022-11-24T15:45:12.632Z,100103.31
2022-11-24T15:48:18.141Z,100111.03
2022-11-24T15:51:22.421Z,100110.66
2022-11-24T15:54:26.443Z,100115.56
2022-11-24T15:57:29.220Z,100116.75
2022-11-24T16:00:33.708Z,100113.81
2022-11-24T16:03:47.090Z,100136.16
2022-11-24T16:06:50.423Z,100113.56
2022-11-24T16:09:53.157Z,100128.72
2022-11-24T16:12:55.833Z,100139.03
2022-11-24T16:16:00.072Z,100139.56
2022-11-24T16:19:03.200Z,100127.63
2022-11-24T16:22:06.397Z,100142.97
2022-11-24T16:25:10.197Z,100149.50
2022-11-24T16:28:13.249Z,100151.59
2022-11-24T16:31:18.501Z,100148.22
2022-11-24T16:34:22.027Z,100117.53
2022-11-24T16:37:24.971Z,100153.94
2022-11-24T16:40:28.648Z,100159.44
2022-11-24T16:43:31.766Z,100151.41
2022-11-24T16:46:36.016Z,100152.72
2022-11-24T16:49:39.062Z,100159.22
2022-11-24T16:52:41.908Z,100158.53
2022-11-24T16:55:44.667Z,100154.25
2022-11-24T16:58:47.628Z,100159.94
2022-11-24T17:01:51.874Z,100160.81
2022-11-24T17:04:54.731Z,100166.34
2022-11-24T17:07:57.539Z,100170.09
2022-11-24T17:11:06.161Z,100166.56
2022-11-24T17:14:10.986Z,100173.00
2022-11-24T17:17:15.252Z,100163.31
2022-11-24T17:20:18.022Z,100177.00
2022-11-24T17:23:20.818Z,100178.09
2022-11-24T17:26:24.884Z,100181.84
2022-11-24T17:29:27.650Z,100185.63
2022-11-24T17:32:32.671Z,100176.84
2022-11-24T17:35:35.740Z,100187.72
2022-11-24T17:38:38.464Z,100180.78
2022-11-24T17:41:41.288Z,100190.66
2022-11-24T17:44:45.678Z,100193.59
2022-11-24T17:47:53.241Z,100195.44
2022-11-24T17:51:03.301Z,100193.81
2022-11-24T17:54:31.162Z,100192.31
2022-11-24T17:57:29.305Z,100200.66
2022-11-24T18:00:32.166Z,100202.66
2022-11-24T18:03:36.495Z,100208.25
2022-11-24T18:06:39.444Z,100212.06
2022-11-24T18:09:42.256Z,100213.22
2022-11-24T18:12:44.998Z,100208.00
2022-11-24T18:15:48.029Z,100201.03
2022-11-24T18:19:07.451Z,100202.19
2022-11-24T18:22:11.356Z,100218.47
2022-11-24T18:25:14.120Z,100221.25
2022-11-24T18:28:16.806Z,100221.34
2022-11-24T18:31:20.701Z,100227.72
2022-11-24T18:34:25.182Z,100228.81
2022-11-24T18:37:30.429Z,100223.50
2022-11-24T18:40:33.218Z,100228.09
2022-11-24T18:43:38.130Z,100228.19
2022-11-24T18:46:40.898Z,100227.41
2022-11-24T18:49:44.977Z,100223.94
2022-11-24T18:52:47.636Z,100231.09
2022-11-24T18:55:57.956Z,100232.91
2022-11-24T18:59:00.661Z,100240.16
2022-11-24T19:02:03.766Z,100235.72
2022-11-24T19:05:08.494Z,100237.06
2022-11-24T19:08:11.255Z,100237.28
2022-11-24T19:11:18.984Z,100240.06
2022-11-24T19:14:21.670Z,100237.44
2022-11-24T19:17:24.435Z,100236.63
2022-11-24T19:20:28.640Z,100235.84
2022-11-24T19:23:31.374Z,100221.31
2022-11-24T19:26:35.841Z,100225.00
2022-11-24T19:29:42.927Z,100233.22
2022-11-24T19:32:46.223Z,100219.28
2022-11-24T19:36:00.262Z,100236.03
2022-11-24T19:39:04.758Z,100235.25
2022-11-24T19:42:07.658Z,100221.97
2022-11-24T19:45:11.316Z,100223.81
2022-11-24T19:48:14.112Z,100220.91
2022-11-24T19:51:20.153Z,100228.25
2022-11-24T19:54:22.834Z,100226.66
2022-11-24T19:57:25.528Z,100237.44
2022-11-24T20:00:31.910Z,100240.06
2022-11-24T20:03:35.166Z,100233.81
2022-11-24T20:06:41.227Z,100230.34
2022-11-24T20:09:44.005Z,100233.03
2022-11-24T20:12:46.866Z,100240.94
2022-11-24T20:15:49.591Z,100238.44
2022-11-24T20:18:53.350Z,100244.69
2022-11-24T20:21:57.577Z,100239.50
2022-11-24T20:25:00.301Z,100244.78
2022-11-24T20:28:03.834Z,100244.03
2022-11-24T20:31:08.400Z,100248.47
2022-11-24T20:34:12.201Z,100244.72
2022-11-24T20:37:16.259Z,100238.59
2022-11-24T20:40:19.249Z,100235.97
2022-11-24T20:43:21.980Z,100244.03
2022-11-24T20:46:26.838Z,100243.13
2022-11-24T20:49:30.686Z,100244.03
2022-11-24T20:52:34.761Z,100236.88
2022-11-24T20:55:37.466Z,100234.19
2022-11-24T20:58:40.382Z,100244.19
2022-11-24T21:01:45.613Z,100237.09
2022-11-24T21:04:48.433Z,100239.88
2022-11-24T21:07:52.524Z,100235.47
2022-11-24T21:10:56.383Z,100212.59
2022-11-24T21:13:59.653Z,100243.66
2022-11-24T21:17:03.334Z,100242.66
2022-11-24T21:20:07.348Z,100247.13
2022-11-24T21:23:11.602Z,100251.72
2022-11-24T21:26:17.211Z,100253.50
2022-11-24T21:29:23.266Z,100264.13
2022-11-24T21:32:26.553Z,100263.13
2022-11-24T21:35:29.520Z,100257.75
2022-11-24T21:38:33.748Z,100255.81
2022-11-24T21:41:36.485Z,100244.09
2022-11-24T21:44:39.163Z,100250.50
2022-11-24T21:47:42.547Z,100240.59
2022-11-24T21:50:45.373Z,100254.22
2022-11-24T21:53:49.600Z,100247.16
2022-11-24T21:56:53.736Z,100248.03
2022-11-24T21:59:56.800Z,100256.75
2022-11-24T22:02:59.621Z,100258.50
2022-11-24T22:06:03.206Z,100249.53
2022-11-24T22:09:07.266Z,100250.28
2022-11-24T22:12:10.047Z,100244.94
2022-11-24T22:15:12.783Z,100255.66
2022-11-24T22:18:15.569Z,100265.56
2022-11-24T22:21:20.656Z,100272.13
2022-11-24T22:24:27.312Z,100265.16
2022-11-24T22:27:30.287Z,100267.81
2022-11-24T22:30:33.022Z,100269.75
2022-11-24T22:33:36.199Z,100260.72
2022-11-24T22:36:38.906Z,100270.59
2022-11-24T22:39:43.010Z,100276.91
2022-11-24T22:42:46.087Z,100270.59
2022-11-24T22:45:49.840Z,100271.53
2022-11-24T22:48:53.901Z,100273.97
2022-11-24T22:51:56.619Z,100263.06
2022-11-24T22:55:00.749Z,100271.75
2022-11-24T22:58:03.494Z,100274.25
2022-11-24T23:01:07.089Z,100271.63
2022-11-24T23:04:09.910Z,100273.31
2022-11-24T23:07:12.707Z,100277.72
2022-11-24T23:10:16.818Z,100273.31
2022-11-24T23:13:19.537Z,100262.47
2022-11-24T23:16:23.101Z,100269.78
2022-11-24T23:19:25.870Z,100268.84
2022-11-24T23:22:28.678Z,100264.53
2022-11-24T23:25:34.414Z,100264.78
2022-11-24T23:28:37.762Z,100264.75
2022-11-24T23:31:40.828Z,100281.13
2022-11-24T23:34:43.715Z,100266.03
2022-11-24T23:38:06.621Z,100274.22
2022-11-24T23:41:12.921Z,100271.59
2022-11-24T23:44:15.653Z,100267.13
2022-11-24T23:47:18.312Z,100265.38
2022-11-24T23:50:21.238Z,100264.59
2022-11-24T23:53:24.049Z,100264.56
2022-11-24T23:56:32.289Z,100253.88
2022-11-24T23:59:35.159Z,100253.66
